createdAt,value
2022-08-28T00:00:15.964Z,19.22
2022-08-28T00:02:42.872Z,19.15
2022-08-28T00:05:11.620Z,19.11
2022-08-28T00:07:38.433Z,19.11
2022-08-28T00:10:07.136Z,19.11
2022-08-28T00:12:34.781Z,19.11
2022-08-28T00:15:01.483Z,19.14
2022-08-28T00:17:28.062Z,19.15
2022-08-28T00:19:54.577Z,19.14
2022-08-28T00:22:21.125Z,19.09
2022-08-28T00:24:48.111Z,19.07
2022-08-28T00:27:33.293Z,19.05
2022-08-28T00:29:59.828Z,19.00
2022-08-28T00:32:27.019Z,18.96
2022-08-28T00:34:53.655Z,18.93
2022-08-28T00:37:20.154Z,18.88
2022-08-28T00:39:51.418Z,18.90
2022-08-28T00:42:18.324Z,18.95
2022-08-28T00:44:45.300Z,18.98
2022-08-28T00:47:12.446Z,18.96
2022-08-28T00:49:47.461Z,18.94
2022-08-28T00:52:16.015Z,18.90
2022-08-28T00:54:58.418Z,18.86
2022-08-28T00:57:34.232Z,18.84
2022-08-28T01:00:01.627Z,18.84
2022-08-28T01:02:28.252Z,18.87
2022-08-28T01:04:55.378Z,18.89
2022-08-28T01:07:23.167Z,18.89
2022-08-28T01:09:54.133Z,18.87
2022-08-28T01:12:28.125Z,18.87
2022-08-28T01:15:00.138Z,18.85
2022-08-28T01:17:31.497Z,18.86
2022-08-28T01:20:06.520Z,18.88
2022-08-28T01:22:40.304Z,18.91
2022-08-28T01:25:14.318Z,18.95
2022-08-28T01:27:44.401Z,18.95
2022-08-28T01:30:14.289Z,18.96
2022-08-28T01:32:47.921Z,18.97
2022-08-28T01:35:19.957Z,19.01
2022-08-28T01:37:47.007Z,19.02
2022-08-28T01:40:20.370Z,19.03
2022-08-28T01:42:46.999Z,19.07
2022-08-28T01:45:17.028Z,19.13
2022-08-28T01:47:45.753Z,19.17
2022-08-28T01:50:20.708Z,19.20
2022-08-28T01:52:47.240Z,19.23
2022-08-28T01:55:14.043Z,19.24
2022-08-28T01:57:45.958Z,19.25
2022-08-28T02:00:14.407Z,19.25
2022-08-28T02:02:41.261Z,19.24
2022-08-28T02:05:09.129Z,19.21
2022-08-28T02:07:36.348Z,19.17
2022-08-28T02:10:04.601Z,19.14
2022-08-28T02:12:31.877Z,19.12
2022-08-28T02:14:58.360Z,19.15
2022-08-28T02:17:24.836Z,19.18
2022-08-28T02:19:51.709Z,19.16
2022-08-28T02:22:18.485Z,19.15
2022-08-28T02:24:45.290Z,19.15
2022-08-28T02:27:12.024Z,19.14
2022-08-28T02:29:39.224Z,19.15
2022-08-28T02:32:06.142Z,19.15
2022-08-28T02:34:34.592Z,19.17
2022-08-28T02:37:01.080Z,19.19
2022-08-28T02:39:28.119Z,19.24
2022-08-28T02:41:54.665Z,19.24
2022-08-28T02:44:21.296Z,19.25
2022-08-28T02:46:47.761Z,19.28
2022-08-28T02:49:14.516Z,19.32
2022-08-28T02:51:42.291Z,19.35
2022-08-28T02:54:08.768Z,19.35
2022-08-28T02:56:35.283Z,19.35
2022-08-28T02:59:01.793Z,19.35
2022-08-28T03:01:28.321Z,19.37
2022-08-28T03:03:54.895Z,19.40
2022-08-28T03:06:22.990Z,19.42
2022-08-28T03:08:49.529Z,19.43
2022-08-28T03:11:15.994Z,19.48
2022-08-28T03:13:42.494Z,19.49
2022-08-28T03:16:09.020Z,19.44
2022-08-28T03:18:35.576Z,19.40
2022-08-28T03:21:02.141Z,19.40
2022-08-28T03:23:29.095Z,19.42
2022-08-28T03:26:14.769Z,19.46
2022-08-28T03:28:47.319Z,19.43
2022-08-28T03:31:18.027Z,19.40
2022-08-28T03:33:45.917Z,19.37
2022-08-28T03:36:15.481Z,19.35
2022-08-28T03:38:42.255Z,19.29
2022-08-28T03:41:14.496Z,19.26
2022-08-28T03:43:41.479Z,19.23
2022-08-28T03:46:12.522Z,19.23
2022-08-28T03:48:39.023Z,19.21
2022-08-28T03:51:17.553Z,19.22
2022-08-28T03:53:45.203Z,19.23
2022-08-28T03:56:15.498Z,19.22
2022-08-28T03:58:43.192Z,19.23
2022-08-28T04:01:10.922Z,19.21
2022-08-28T04:03:37.496Z,19.20
2022-08-28T04:06:04.279Z,19.19
2022-08-28T04:08:30.992Z,19.16
2022-08-28T04:11:01.924Z,19.16
2022-08-28T04:13:29.501Z,19.17
2022-08-28T04:16:10.642Z,19.19
2022-08-28T04:18:42.972Z,19.21
2022-08-28T04:21:28.046Z,19.25
2022-08-28T04:23:55.305Z,19.29
2022-08-28T04:26:25.796Z,19.30
2022-08-28T04:28:53.805Z,19.29
2022-08-28T04:31:32.222Z,19.29
2022-08-28T04:34:04.872Z,19.30
2022-08-28T04:36:33.498Z,19.32
2022-08-28T04:39:00.623Z,19.35
2022-08-28T04:41:28.401Z,19.38
2022-08-28T04:43:57.178Z,19.40
2022-08-28T04:46:24.232Z,19.43
2022-08-28T04:48:50.785Z,19.49
2022-08-28T04:51:17.267Z,19.54
2022-08-28T04:53:44.159Z,19.56
2022-08-28T04:56:12.917Z,19.55
2022-08-28T04:58:41.513Z,19.54
2022-08-28T05:01:12.758Z,19.52
2022-08-28T05:03:40.039Z,19.55
2022-08-28T05:06:07.158Z,19.60
2022-08-28T05:08:34.012Z,19.62
2022-08-28T05:11:30.705Z,19.61
2022-08-28T05:14:04.227Z,19.59
2022-08-28T05:16:31.032Z,19.58
2022-08-28T05:19:01.611Z,19.58
2022-08-28T05:21:28.258Z,19.59
2022-08-28T05:23:57.383Z,19.59
2022-08-28T05:26:26.780Z,19.59
2022-08-28T05:28:56.625Z,19.59
2022-08-28T05:31:24.463Z,19.61
2022-08-28T05:33:52.673Z,19.66
2022-08-28T05:36:22.049Z,19.73
2022-08-28T05:38:49.381Z,19.77
2022-08-28T05:41:24.853Z,19.84
2022-08-28T05:43:53.540Z,19.87
2022-08-28T05:46:20.742Z,19.87
2022-08-28T05:48:49.343Z,19.87
2022-08-28T05:51:20.071Z,19.91
2022-08-28T05:53:49.852Z,19.95
2022-08-28T05:56:21.462Z,19.97
2022-08-28T05:58:48.104Z,19.99
2022-08-28T06:01:17.926Z,20.00
2022-08-28T06:03:50.823Z,20.02
2022-08-28T06:06:17.449Z,20.06
2022-08-28T06:08:56.349Z,20.13
2022-08-28T06:11:30.387Z,20.20
2022-08-28T06:14:01.802Z,20.17
2022-08-28T06:16:31.583Z,20.17
2022-08-28T06:18:58.220Z,20.18
2022-08-28T06:21:24.803Z,20.17
2022-08-28T06:23:51.775Z,20.17
2022-08-28T06:26:18.817Z,20.22
2022-08-28T06:28:45.334Z,20.26
2022-08-28T06:31:25.029Z,20.16
2022-08-28T06:33:54.871Z,20.18
2022-08-28T06:36:22.499Z,20.19
2022-08-28T06:38:49.500Z,20.24
2022-08-28T06:41:16.604Z,20.33
2022-08-28T06:43:43.193Z,20.38
2022-08-28T06:46:09.922Z,20.48
2022-08-28T06:48:36.697Z,20.56
2022-08-28T06:51:07.071Z,20.64
2022-08-28T06:53:33.879Z,20.77
2022-08-28T06:56:02.182Z,20.91
2022-08-28T06:58:29.109Z,20.91
2022-08-28T07:01:03.943Z,20.89
2022-08-28T07:03:30.507Z,20.87
2022-08-28T07:05:58.660Z,20.89
2022-08-28T07:08:27.699Z,20.95
2022-08-28T07:10:54.486Z,21.03
2022-08-28T07:13:22.229Z,21.12
2022-08-28T07:15:49.113Z,21.11
2022-08-28T07:18:15.931Z,21.11
2022-08-28T07:20:42.410Z,21.16
2022-08-28T07:23:08.957Z,21.25
2022-08-28T07:25:40.472Z,21.31
2022-08-28T07:28:07.929Z,21.35
2022-08-28T07:30:34.420Z,21.30
2022-08-28T07:33:00.922Z,21.19
2022-08-28T07:35:27.475Z,21.16
2022-08-28T07:37:53.959Z,21.20
2022-08-28T07:40:22.244Z,21.19
2022-08-28T07:43:07.490Z,21.12
2022-08-28T07:45:35.449Z,21.01
2022-08-28T07:48:11.364Z,20.89
2022-08-28T07:50:38.221Z,20.87
2022-08-28T07:53:08.089Z,20.85
2022-08-28T07:55:34.570Z,20.85
2022-08-28T07:58:01.557Z,20.85
2022-08-28T08:00:28.159Z,20.92
2022-08-28T08:02:54.658Z,21.00
2022-08-28T08:05:21.200Z,21.06
2022-08-28T08:07:47.709Z,21.14
2022-08-28T08:10:14.949Z,21.19
2022-08-28T08:12:47.117Z,21.24
2022-08-28T08:15:13.629Z,21.31
2022-08-28T08:17:40.389Z,21.39
2022-08-28T08:20:08.532Z,21.46
2022-08-28T08:22:35.872Z,21.49
2022-08-28T08:25:05.504Z,21.55
2022-08-28T08:27:38.806Z,21.66
2022-08-28T08:30:08.294Z,21.72
2022-08-28T08:32:34.836Z,21.80
2022-08-28T08:35:01.691Z,21.93
2022-08-28T08:37:28.198Z,22.09
2022-08-28T08:39:54.844Z,22.25
2022-08-28T08:42:27.737Z,22.33
2022-08-28T08:44:57.379Z,22.36
2022-08-28T08:47:36.441Z,22.42
2022-08-28T08:50:24.063Z,22.48
2022-08-28T08:53:46.408Z,22.37
2022-08-28T08:56:16.812Z,22.41
2022-08-28T08:58:49.958Z,22.48
2022-08-28T09:01:39.489Z,22.66
2022-08-28T09:04:22.126Z,22.89
2022-08-28T09:06:52.547Z,23.11
2022-08-28T09:09:37.835Z,23.26
2022-08-28T09:12:07.224Z,23.46
2022-08-28T09:14:41.586Z,23.65
2022-08-28T09:17:10.194Z,23.79
2022-08-28T09:19:36.767Z,23.91
2022-08-28T09:22:03.792Z,23.97
2022-08-28T09:24:33.794Z,24.13
2022-08-28T09:27:24.342Z,24.16
2022-08-28T09:30:07.457Z,24.14
2022-08-28T09:32:43.535Z,24.26
2022-08-28T09:35:25.804Z,24.44
2022-08-28T09:37:52.429Z,24.65
2022-08-28T09:40:48.339Z,24.73
2022-08-28T09:43:28.440Z,24.71
2022-08-28T09:46:05.626Z,24.68
2022-08-28T09:48:39.230Z,24.70
2022-08-28T09:51:25.706Z,24.73
2022-08-28T09:53:52.137Z,24.79
2022-08-28T09:56:27.939Z,24.87
2022-08-28T09:59:00.501Z,25.04
2022-08-28T10:01:50.757Z,25.10
2022-08-28T10:04:41.293Z,25.16
2022-08-28T10:07:22.361Z,25.10
2022-08-28T10:10:26.494Z,25.10
2022-08-28T10:12:59.360Z,25.18
2022-08-28T10:15:31.848Z,25.28
2022-08-28T10:18:34.167Z,25.27
2022-08-28T10:21:14.811Z,25.27
2022-08-28T10:23:57.238Z,25.13
2022-08-28T10:26:55.145Z,25.05
2022-08-28T10:29:30.730Z,25.15
2022-08-28T10:32:32.658Z,25.23
2022-08-28T10:35:01.969Z,25.30
2022-08-28T10:37:55.699Z,25.39
2022-08-28T10:40:29.878Z,25.50
2022-08-28T10:43:19.982Z,25.60
2022-08-28T10:45:49.448Z,25.73
2022-08-28T10:48:25.085Z,25.85
2022-08-28T10:51:16.283Z,25.82
2022-08-28T10:53:54.560Z,25.92
2022-08-28T10:56:25.961Z,25.92
2022-08-28T10:58:58.954Z,25.91
2022-08-28T11:01:32.896Z,25.84
2022-08-28T11:04:03.179Z,25.86
2022-08-28T11:06:53.058Z,25.91
2022-08-28T11:09:42.815Z,25.81
2022-08-28T11:12:19.716Z,25.77
2022-08-28T11:14:50.054Z,25.75
2022-08-28T11:17:22.900Z,25.88
2022-08-28T11:20:03.304Z,25.87
2022-08-28T11:22:45.427Z,25.85
2022-08-28T11:25:15.010Z,25.93
2022-08-28T11:28:14.389Z,25.96
2022-08-28T11:30:42.846Z,26.04
2022-08-28T11:33:44.485Z,26.04
2022-08-28T11:36:19.810Z,26.09
2022-08-28T11:38:46.831Z,26.13
2022-08-28T11:41:20.930Z,26.12
2022-08-28T11:43:52.302Z,26.24
2022-08-28T11:46:31.532Z,26.42
2022-08-28T11:49:27.263Z,26.42
2022-08-28T11:52:27.310Z,26.45
2022-08-28T11:55:24.724Z,26.55
2022-08-28T12:00:53.937Z,26.55
2022-08-28T12:03:42.688Z,26.56
2022-08-28T12:06:10.841Z,26.45
2022-08-28T12:08:51.270Z,26.39
2022-08-28T12:11:39.304Z,26.39
2022-08-28T12:14:11.401Z,26.43
2022-08-28T12:17:15.949Z,26.45
2022-08-28T12:19:58.472Z,26.55
2022-08-28T12:22:39.482Z,26.58
2022-08-28T12:25:15.233Z,26.52
2022-08-28T12:27:41.973Z,26.49
2022-08-28T12:30:08.761Z,26.46
2022-08-28T12:32:59.929Z,26.55
2022-08-28T12:35:29.867Z,26.66
2022-08-28T12:37:57.283Z,26.80
2022-08-28T12:40:50.169Z,26.92
2022-08-28T12:43:27.719Z,26.99
2022-08-28T12:46:01.107Z,27.13
2022-08-28T12:48:34.991Z,27.22
2022-08-28T12:51:06.033Z,27.27
2022-08-28T12:53:45.604Z,27.43
2022-08-28T12:56:15.850Z,27.46
2022-08-28T12:58:42.768Z,27.40
2022-08-28T13:01:21.689Z,27.51
2022-08-28T13:04:01.555Z,27.65
2022-08-28T13:06:30.665Z,27.81
2022-08-28T13:09:14.976Z,27.99
2022-08-28T13:11:47.573Z,28.27
2022-08-28T13:14:14.613Z,28.58
2022-08-28T13:16:47.039Z,28.71
2022-08-28T13:19:35.017Z,28.73
2022-08-28T13:22:09.261Z,28.64
2022-08-28T13:24:39.572Z,28.50
2022-08-28T13:27:12.127Z,28.26
2022-08-28T13:29:57.296Z,28.07
2022-08-28T13:32:27.339Z,27.90
2022-08-28T13:35:18.122Z,27.88
2022-08-28T13:37:53.349Z,27.85
2022-08-28T13:41:03.106Z,27.86
2022-08-28T13:43:43.384Z,27.87
2022-08-28T13:46:10.267Z,27.82
2022-08-28T13:48:36.778Z,27.75
2022-08-28T13:51:10.493Z,27.64
2022-08-28T13:53:38.449Z,27.57
2022-08-28T13:56:05.401Z,27.55
2022-08-28T13:58:32.033Z,27.46
2022-08-28T14:00:59.012Z,27.45
2022-08-28T14:03:41.270Z,27.45
2022-08-28T14:06:11.687Z,27.46
2022-08-28T14:08:43.666Z,27.38
2022-08-28T14:11:12.699Z,27.44
2022-08-28T14:13:40.886Z,27.52
2022-08-28T14:16:16.783Z,27.64
2022-08-28T14:18:43.443Z,27.87
2022-08-28T14:21:10.097Z,28.11
2022-08-28T14:23:36.620Z,28.09
2022-08-28T14:26:05.727Z,27.98
2022-08-28T14:28:32.438Z,28.01
2022-08-28T14:30:58.909Z,28.07
2022-08-28T14:33:25.392Z,28.12
2022-08-28T14:35:51.923Z,28.33
2022-08-28T14:38:18.486Z,28.33
2022-08-28T14:40:45.573Z,28.14
2022-08-28T14:43:13.654Z,27.99
2022-08-28T14:45:49.600Z,27.80
2022-08-28T14:48:18.200Z,27.68
2022-08-28T14:50:46.440Z,27.60
2022-08-28T14:53:14.099Z,27.75
2022-08-28T14:55:46.407Z,27.82
2022-08-28T14:58:13.968Z,27.89
2022-08-28T15:00:43.372Z,27.98
2022-08-28T15:03:10.277Z,28.04
2022-08-28T15:05:36.882Z,28.32
2022-08-28T15:08:07.694Z,28.55
2022-08-28T15:10:34.592Z,28.64
2022-08-28T15:13:01.073Z,28.74
2022-08-28T15:15:27.570Z,28.82
2022-08-28T15:17:54.301Z,28.86
2022-08-28T15:20:20.881Z,28.94
2022-08-28T15:22:47.423Z,29.00
2022-08-28T15:25:14.193Z,28.94
2022-08-28T15:27:40.729Z,28.74
2022-08-28T15:30:07.834Z,28.70
2022-08-28T15:32:34.428Z,28.69
2022-08-28T15:35:01.002Z,28.51
2022-08-28T15:37:29.346Z,28.39
2022-08-28T15:40:16.825Z,28.39
2022-08-28T15:42:44.487Z,28.38
2022-08-28T15:45:12.155Z,28.42
2022-08-28T15:47:38.694Z,28.38
2022-08-28T15:50:05.918Z,28.41
2022-08-28T15:52:33.030Z,28.39
2022-08-28T15:54:59.539Z,28.30
2022-08-28T15:57:26.132Z,28.37
2022-08-28T15:59:52.620Z,28.49
2022-08-28T16:02:22.033Z,28.47
2022-08-28T16:04:49.384Z,28.37
2022-08-28T16:07:16.867Z,28.29
2022-08-28T16:09:43.390Z,28.26
2022-08-28T16:12:09.952Z,28.11
2022-08-28T16:14:36.556Z,28.20
2022-08-28T16:17:05.974Z,28.33
2022-08-28T16:19:39.821Z,28.34
2022-08-28T16:22:06.987Z,28.35
2022-08-28T16:24:33.778Z,28.33
2022-08-28T16:27:00.368Z,28.35
2022-08-28T16:29:26.896Z,28.31
2022-08-28T16:31:53.486Z,28.24
2022-08-28T16:34:20.348Z,28.14
2022-08-28T16:36:48.271Z,28.02
2022-08-28T16:39:15.112Z,28.01
2022-08-28T16:41:43.101Z,27.99
2022-08-28T16:44:09.612Z,28.00
2022-08-28T16:46:36.168Z,28.06
2022-08-28T16:49:03.221Z,27.97
2022-08-28T16:51:29.906Z,27.82
2022-08-28T16:53:56.668Z,27.80
2022-08-28T16:56:24.877Z,27.85
2022-08-28T16:58:53.052Z,27.84
2022-08-28T17:01:23.892Z,27.77
2022-08-28T17:03:52.529Z,27.74
2022-08-28T17:06:23.319Z,27.79
2022-08-28T17:08:55.905Z,27.77
2022-08-28T17:11:24.447Z,27.72
2022-08-28T17:13:50.948Z,27.70
2022-08-28T17:16:18.672Z,27.70
2022-08-28T17:18:47.473Z,27.72
2022-08-28T17:21:33.249Z,27.62
2022-08-28T17:24:01.182Z,27.55
2022-08-28T17:26:27.683Z,27.49
2022-08-28T17:28:54.296Z,27.46
2022-08-28T17:31:20.886Z,27.45
2022-08-28T17:33:47.434Z,27.33
2022-08-28T17:36:28.930Z,27.25
2022-08-28T17:39:02.249Z,27.08
2022-08-28T17:41:28.916Z,26.89
2022-08-28T17:43:55.464Z,26.67
2022-08-28T17:46:22.512Z,26.40
2022-08-28T17:48:54.462Z,26.21
2022-08-28T17:51:33.211Z,26.05
2022-08-28T17:54:15.472Z,25.85
2022-08-28T17:56:42.153Z,25.69
2022-08-28T17:59:09.240Z,25.57
2022-08-28T18:01:36.050Z,25.45
2022-08-28T18:04:02.909Z,25.36
2022-08-28T18:06:29.385Z,25.26
2022-08-28T18:08:55.870Z,25.17
2022-08-28T18:11:22.528Z,25.08
2022-08-28T18:13:49.417Z,24.98
2022-08-28T18:16:16.644Z,24.91
2022-08-28T18:18:43.494Z,24.82
2022-08-28T18:21:10.873Z,24.76
2022-08-28T18:23:39.456Z,24.68
2022-08-28T18:26:07.309Z,24.61
2022-08-28T18:28:33.961Z,24.54
2022-08-28T18:31:03.580Z,24.46
2022-08-28T18:33:30.317Z,24.37
2022-08-28T18:35:56.924Z,24.30
2022-08-28T18:38:28.052Z,24.21
2022-08-28T18:40:55.807Z,24.14
2022-08-28T18:43:22.564Z,24.04
2022-08-28T18:45:49.586Z,23.91
2022-08-28T18:48:16.538Z,23.80
2022-08-28T18:50:46.332Z,23.71
2022-08-28T18:53:14.680Z,23.63
2022-08-28T18:55:41.293Z,23.54
2022-08-28T18:58:07.889Z,23.44
2022-08-28T19:00:36.929Z,23.33
2022-08-28T19:03:03.696Z,23.27
2022-08-28T19:05:30.723Z,23.18
2022-08-28T19:08:00.086Z,23.11
2022-08-28T19:10:33.966Z,23.05
2022-08-28T19:13:01.653Z,23.02
2022-08-28T19:15:28.784Z,22.99
2022-08-28T19:17:55.632Z,22.95
2022-08-28T19:20:23.034Z,22.91
2022-08-28T19:22:49.884Z,22.85
2022-08-28T19:25:28.467Z,22.79
2022-08-28T19:27:59.211Z,22.74
2022-08-28T19:30:27.420Z,22.72
2022-08-28T19:32:54.080Z,22.70
2022-08-28T19:35:20.848Z,22.70
2022-08-28T19:37:51.481Z,22.69
2022-08-28T19:40:18.096Z,22.68
2022-08-28T19:42:44.626Z,22.66
2022-08-28T19:45:13.889Z,22.62
2022-08-28T19:47:40.755Z,22.58
2022-08-28T19:50:10.593Z,22.54
2022-08-28T19:52:37.430Z,22.48
2022-08-28T19:55:06.030Z,22.40
2022-08-28T19:57:33.649Z,22.32
2022-08-28T20:00:00.366Z,22.20
2022-08-28T20:02:28.510Z,22.06
2022-08-28T20:04:55.414Z,21.94
2022-08-28T20:07:22.331Z,21.85
2022-08-28T20:09:48.911Z,21.80
2022-08-28T20:12:15.490Z,21.77
2022-08-28T20:14:42.598Z,21.77
2022-08-28T20:17:09.505Z,21.76
2022-08-28T20:19:36.032Z,21.79
2022-08-28T20:22:03.750Z,21.79
2022-08-28T20:24:30.548Z,21.76
2022-08-28T20:26:57.322Z,21.72
2022-08-28T20:29:24.293Z,21.69
2022-08-28T20:31:51.674Z,21.65
2022-08-28T20:34:19.221Z,21.62
2022-08-28T20:36:46.140Z,21.59
2022-08-28T20:39:12.808Z,21.48
2022-08-28T20:41:41.076Z,21.41
2022-08-28T20:44:09.330Z,21.35
2022-08-28T20:46:40.864Z,21.31
2022-08-28T20:49:12.512Z,21.24
2022-08-28T20:52:00.982Z,21.22
2022-08-28T20:54:29.358Z,21.14
2022-08-28T20:56:58.051Z,21.07
2022-08-28T20:59:28.777Z,21.01
2022-08-28T21:02:05.293Z,20.98
2022-08-28T21:04:35.746Z,20.93
2022-08-28T21:07:02.342Z,20.84
2022-08-28T21:09:33.468Z,20.80
2022-08-28T21:12:16.659Z,20.74
2022-08-28T21:14:44.312Z,20.67
2022-08-28T21:17:18.517Z,20.63
2022-08-28T21:19:55.868Z,20.60
2022-08-28T21:22:22.458Z,20.53
2022-08-28T21:24:48.982Z,20.44
2022-08-28T21:27:15.499Z,20.33
2022-08-28T21:29:45.818Z,20.23
2022-08-28T21:32:12.727Z,20.16
2022-08-28T21:34:39.358Z,20.11
2022-08-28T21:37:06.358Z,20.08
2022-08-28T21:39:33.091Z,20.07
2022-08-28T21:41:59.648Z,20.00
2022-08-28T21:44:26.249Z,19.96
2022-08-28T21:46:53.018Z,19.90
2022-08-28T21:49:19.991Z,19.85
2022-08-28T21:51:46.520Z,19.82
2022-08-28T21:54:13.229Z,19.77
2022-08-28T21:56:39.987Z,19.70
2022-08-28T21:59:06.490Z,19.63
2022-08-28T22:01:33.179Z,19.61
2022-08-28T22:03:59.743Z,19.59
2022-08-28T22:06:27.099Z,19.54
2022-08-28T22:08:54.927Z,19.52
2022-08-28T22:11:24.864Z,19.48
2022-08-28T22:13:52.339Z,19.41
2022-08-28T22:16:21.516Z,19.36
2022-08-28T22:18:48.067Z,19.32
2022-08-28T22:21:37.087Z,19.29
2022-08-28T22:24:04.669Z,19.24
2022-08-28T22:26:31.326Z,19.20
2022-08-28T22:28:58.142Z,19.15
2022-08-28T22:31:24.747Z,19.11
2022-08-28T22:33:52.145Z,19.07
2022-08-28T22:36:20.550Z,19.00
2022-08-28T22:38:53.389Z,18.93
2022-08-28T22:41:20.625Z,18.91
2022-08-28T22:43:51.376Z,18.87
2022-08-28T22:46:20.413Z,18.83
2022-08-28T22:48:47.265Z,18.79
2022-08-28T22:51:18.236Z,18.76
2022-08-28T22:53:45.269Z,18.75
2022-08-28T22:56:12.348Z,18.73
2022-08-28T22:58:39.482Z,18.73
2022-08-28T23:01:12.467Z,18.72
2022-08-28T23:03:40.693Z,18.68
2022-08-28T23:06:07.613Z,18.64
2022-08-28T23:08:34.453Z,18.57
2022-08-28T23:11:01.387Z,18.54
2022-08-28T23:13:29.555Z,18.48
2022-08-28T23:15:56.344Z,18.42
2022-08-28T23:18:22.991Z,18.36
2022-08-28T23:20:50.648Z,18.29
2022-08-28T23:23:19.262Z,18.28
2022-08-28T23:25:45.781Z,18.25
2022-08-28T23:28:12.488Z,18.24
2022-08-28T23:30:41.268Z,18.23
2022-08-28T23:33:19.756Z,18.23
2022-08-28T23:35:51.243Z,18.24
2022-08-28T23:38:17.901Z,18.22
2022-08-28T23:40:44.571Z,18.18
2022-08-28T23:43:11.969Z,18.14
2022-08-28T23:45:40.674Z,18.12
2022-08-28T23:48:08.346Z,18.10
2022-08-28T23:50:35.352Z,18.06
2022-08-28T23:53:04.434Z,18.01
2022-08-28T23:55:31.747Z,17.94
2022-08-28T23:58:00.187Z,17.86
